TimeWET,TemperatureF,Dew PointF,Humidity,Sea Level PressureIn,VisibilityMPH,Wind Direction,Wind SpeedMPH,Gust SpeedMPH,PrecipitationIn,Events,Conditions,WindDirDegrees,DateUTC
12:00 AM,68,49,41,29.82,6,ENE,4.6,,,,,70,2013-04-24 00:00:00
12:30 AM,66.2,50.0,56,29.86,-9999.0,East,4.6,-,N/A,,Clear,100,2013-04-24 00:30:00
1:00 AM,68.0,50.0,52,29.83,-9999.0,SE,4.6,-,N/A,,Clear,140,2013-04-24 01:00:00
1:30 AM,64.4,48.2,56,29.83,-9999.0,Calm,Calm,-,N/A,,Clear,0,2013-04-24 01:30:00
2:00 AM,62.6,48.2,59,29.83,-9999.0,East,3.5,-,N/A,,Clear,90,2013-04-24 02:00:00
2:30 AM,64.4,48.2,56,29.83,6.2,East,1.2,-,N/A,,Unknown,90,2013-04-24 02:30:00
3:00 AM,64,47,44,29.80,6,East,2.3,,,,,100,2013-04-24 03:00:00
3:00 AM,64.4,48.2,56,29.83,6.2,Calm,Calm,-,N/A,,Unknown,0,2013-04-24 03:00:00
5:30 AM,57.2,48.2,72,29.86,-9999.0,West,5.8,-,N/A,,Clear,280,2013-04-24 05:30:00
6:00 AM,59,49,59,29.85,6,WSW,8.1,,,,,250,2013-04-24 06:00:00
6:00 AM,57.2,48.2,72,29.86,-9999.0,West,5.8,-,N/A,,Clear,280,2013-04-24 06:00:00
6:30 AM,59.0,51.8,77,29.86,-9999.0,WSW,5.8,-,N/A,,Clear,240,2013-04-24 06:30:00
7:00 AM,60.8,50.0,68,29.89,-9999.0,WSW,3.5,-,N/A,,Clear,240,2013-04-24 07:00:00
7:30 AM,64.4,51.8,64,29.89,-9999.0,West,4.6,-,N/A,,Clear,260,2013-04-24 07:30:00
8:00 AM,66.2,53.6,64,29.89,-9999.0,Variable,2.3,-,N/A,,Clear,0,2013-04-24 08:00:00
8:30 AM,68.0,53.6,60,29.92,-9999.0,Variable,2.3,-,N/A,,Clear,0,2013-04-24 08:30:00
9:00 AM,71,52,40,29.86,6,Calm,Calm,,,,,,2013-04-24 09:00:00
9:00 AM,69.8,51.8,53,29.92,-9999.0,Calm,Calm,-,N/A,,Clear,0,2013-04-24 09:00:00
9:30 AM,73.4,51.8,47,29.92,-9999.0,Variable,2.3,-,N/A,,Clear,0,2013-04-24 09:30:00
10:00 AM,75.2,50.0,41,29.92,-9999.0,Variable,1.2,-,N/A,,Clear,0,2013-04-24 10:00:00
10:30 AM,77.0,50.0,39,29.92,-9999.0,Variable,2.3,-,N/A,,Clear,0,2013-04-24 10:30:00
11:00 AM,78.8,48.2,34,29.92,-9999.0,NNW,3.5,-,N/A,,Clear,330,2013-04-24 11:00:00
11:30 AM,78.8,46.4,32,29.92,-9999.0,Variable,1.2,-,N/A,,Clear,0,2013-04-24 11:30:00
12:00 PM,80,45,19,29.83,6,NW,6.9,,,,Scattered Clouds,310,2013-04-24 12:00:00
12:00 PM,80.6,46.4,30,29.92,6.2,WNW,6.9,-,N/A,,Partly Cloudy,300,2013-04-24 12:00:00
12:30 PM,82.4,42.8,25,29.89,6.2,NNE,3.5,-,N/A,,Partly Cloudy,30,2013-04-24 12:30:00
1:00 PM,82.4,41.0,23,29.89,6.2,NW,8.1,-,N/A,,Partly Cloudy,320,2013-04-24 13:00:00
1:30 PM,82.4,42.8,25,29.89,6.2,NW,8.1,-,N/A,,Partly Cloudy,320,2013-04-24 13:30:00
2:00 PM,84.2,42.8,23,29.89,6.2,West,11.5,-,N/A,,Partly Cloudy,280,2013-04-24 14:00:00
2:30 PM,84.2,44.6,25,29.89,6.2,WNW,11.5,-,N/A,,Partly Cloudy,290,2013-04-24 14:30:00
3:00 PM,85,45,16,29.78,6,WNW,15.0,,,,Scattered Clouds,290,2013-04-24 15:00:00
3:00 PM,86.0,44.6,23,29.86,6.2,WNW,12.7,-,N/A,,Partly Cloudy,300,2013-04-24 15:00:00
3:30 PM,86.0,46.4,25,29.86,6.2,WNW,9.2,-,N/A,,Scattered Clouds,300,2013-04-24 15:30:00
4:00 PM,86.0,46.4,25,29.86,6.2,NNW,9.2,-,N/A,,Mostly Cloudy,330,2013-04-24 16:00:00
4:30 PM,86.0,46.4,25,29.86,6.2,WNW,15.0,26.5,N/A,,Mostly Cloudy,300,2013-04-24 16:30:00
5:00 PM,84.2,44.6,25,29.86,6.2,WNW,13.8,-,N/A,,Scattered Clouds,290,2013-04-24 17:00:00
5:30 PM,82.4,44.6,26,29.86,6.2,WNW,15.0,-,N/A,,Scattered Clouds,300,2013-04-24 17:30:00
6:00 PM,82,43,15,29.79,6,WNW,15.0,,,,Partly Cloudy,300,2013-04-24 18:00:00
6:00 PM,82.4,42.8,25,29.86,6.2,WNW,16.1,-,N/A,,Scattered Clouds,300,2013-04-24 18:00:00
6:30 PM,80.6,41.0,24,29.89,6.2,WNW,18.4,-,N/A,,Scattered Clouds,290,2013-04-24 18:30:00
7:00 PM,78.8,39.2,24,29.89,6.2,WNW,17.3,-,N/A,,Scattered Clouds,290,2013-04-24 19:00:00
7:30 PM,77.0,39.2,26,29.89,6.2,WNW,15.0,-,N/A,,Scattered Clouds,300,2013-04-24 19:30:00
8:00 PM,75.2,39.2,27,29.92,6.2,WNW,11.5,-,N/A,,Scattered Clouds,300,2013-04-24 20:00:00
8:30 PM,73.4,39.2,29,29.92,6.2,WNW,9.2,-,N/A,,Scattered Clouds,300,2013-04-24 20:30:00
9:00 PM,74,40,19,29.89,6,West,3.5,,,,Partly Cloudy,260,2013-04-24 21:00:00
9:00 PM,73.4,41.0,31,29.95,6.2,West,3.5,-,N/A,,Scattered Clouds,270,2013-04-24 21:00:00
9:30 PM,73.4,41.0,31,29.95,6.2,SSW,5.8,-,N/A,,Scattered Clouds,210,2013-04-24 21:30:00
10:00 PM,73.4,41.0,31,29.95,6.2,SW,6.9,-,N/A,,Scattered Clouds,220,2013-04-24 22:00:00
10:30 PM,71.6,42.8,35,29.95,6.2,SSW,6.9,-,N/A,,Scattered Clouds,210,2013-04-24 22:30:00
11:00 PM,69.8,42.8,38,29.95,6.2,WSW,8.1,-,N/A,,Scattered Clouds,250,2013-04-24 23:00:00
11:30 PM,68.0,42.8,40,29.95,6.2,WSW,8.1,-,N/A,,Scattered Clouds,240,2013-04-24 23:30:00